Time;durP1;ratioP1;P1;durP2;ratioP2;P2;SDS_P1;SDS_P2;PMS_P1;PMS_P2;Temp;Humidity;BMP_temperature;BMP_pressure;BME280_temperature;BME280_humidity;BME280_pressure;Samples;Min_cycle;Max_cycle;Signal;HPM_P1;HPM_P2
2024/01/11 00:02:00;;;;;;;5.70;1.95;;;;;;;0.91;100.00;102119.94;6118721;23;20264;-90
2024/01/11 00:04:26;;;;;;;7.88;2.58;;;;;;;0.84;100.00;102115.63;6120626;23;20432;-89
2024/01/11 00:06:51;;;;;;;6.70;2.35;;;;;;;0.85;100.00;102127.47;6120368;23;20084;-89
2024/01/11 00:09:16;;;;;;;12.80;3.65;;;;;;;0.90;100.00;102128.38;6120651;23;20033;-90
2024/01/11 00:11:42;;;;;;;8.18;3.88;;;;;;;0.84;100.00;102124.09;6118490;23;20376;-90
2024/01/11 00:14:07;;;;;;;7.82;2.15;;;;;;;0.79;100.00;102138.44;6120497;23;20021;-91
2024/01/11 00:16:32;;;;;;;7.85;2.35;;;;;;;0.75;100.00;102146.03;6120470;23;20475;-88
2024/01/11 00:18:58;;;;;;;7.05;2.20;;;;;;;0.78;100.00;102144.38;6120209;23;20021;-89
2024/01/11 00:21:24;;;;;;;13.77;2.50;;;;;;;0.85;100.00;102152.91;6118406;23;20131;-90
2024/01/11 00:23:49;;;;;;;3.30;1.95;;;;;;;0.83;100.00;102150.34;6120619;23;19998;-90
2024/01/11 00:26:15;;;;;;;4.53;2.28;;;;;;;0.92;100.00;102158.91;6120467;23;20077;-90
2024/01/11 00:28:40;;;;;;;6.78;2.17;;;;;;;0.86;100.00;102152.09;6121306;23;20002;-89
2024/01/11 00:31:06;;;;;;;8.38;2.63;;;;;;;0.91;100.00;102157.22;6121077;23;20333;-90
2024/01/11 00:33:31;;;;;;;7.68;2.30;;;;;;;0.90;100.00;102155.50;6121727;23;20001;-90
2024/01/11 00:35:57;;;;;;;4.60;2.10;;;;;;;0.78;100.00;102151.13;6120130;23;20017;-90
2024/01/11 00:38:23;;;;;;;10.05;2.15;;;;;;;0.84;100.00;102157.13;6121421;23;20006;-89
2024/01/11 00:40:49;;;;;;;5.55;2.08;;;;;;;0.80;100.00;102160.47;6121142;23;20484;-89
2024/01/11 00:43:14;;;;;;;5.85;2.42;;;;;;;0.78;100.00;102157.09;6121604;23;20006;-90
2024/01/11 00:45:39;;;;;;;7.63;2.60;;;;;;;0.84;100.00;102164.75;6121473;23;20006;-90
2024/01/11 00:48:05;;;;;;;7.95;1.90;;;;;;;0.83;100.00;102152.06;6121535;23;20055;-90
2024/01/11 00:50:31;;;;;;;6.82;1.88;;;;;;;0.89;100.00;102148.72;6121026;23;20324;-90
2024/01/11 00:52:57;;;;;;;9.15;2.05;;;;;;;0.76;100.00;102163.00;6119601;23;20042;-90
2024/01/11 00:55:22;;;;;;;16.00;4.82;;;;;;;1.01;100.00;102148.84;6121377;23;20006;-91
2024/01/11 00:57:48;;;;;;;7.82;1.98;;;;;;;0.89;100.00;102162.28;6121278;23;20074;-91
2024/01/11 01:00:16;;;;;;;9.73;2.20;;;;;;;0.87;100.00;102166.47;6121606;23;20013;-88
2024/01/11 01:02:42;;;;;;;8.50;2.05;;;;;;;0.79;100.00;102158.78;6121109;23;20002;-89
2024/01/11 01:05:08;;;;;;;8.55;2.20;;;;;;;0.81;100.00;102167.28;6121289;23;20013;-90
2024/01/11 01:07:33;;;;;;;12.45;2.35;;;;;;;0.79;100.00;102171.50;6121168;23;20006;-90
2024/01/11 01:09:59;;;;;;;6.43;2.10;;;;;;;0.82;100.00;102163.88;6119642;23;20433;-90
2024/01/11 01:12:28;;;;;;;5.40;1.70;;;;;;;0.83;100.00;102180.88;6120839;23;20092;-90
2024/01/11 01:14:54;;;;;;;11.32;3.00;;;;;;;0.81;100.00;102176.59;6119410;23;20005;-90
2024/01/11 01:17:19;;;;;;;8.77;2.17;;;;;;;0.83;100.00;102190.19;6121197;23;20005;-90
2024/01/11 01:19:44;;;;;;;4.53;2.13;;;;;;;0.80;100.00;102179.97;6121062;23;20452;-90
2024/01/11 01:22:10;;;;;;;11.52;1.85;;;;;;;0.82;100.00;102171.50;6120738;23;20090;-90
2024/01/11 01:24:36;;;;;;;6.72;1.50;;;;;;;0.80;100.00;102178.25;6120951;23;20009;-90
2024/01/11 01:27:01;;;;;;;11.20;2.38;;;;;;;0.85;100.00;102189.38;6121142;23;20006;-89
2024/01/11 01:29:27;;;;;;;10.10;2.10;;;;;;;0.77;100.00;102190.94;6121191;23;20100;-89
2024/01/11 01:31:52;;;;;;;8.18;2.20;;;;;;;0.90;100.00;102180.91;6120451;23;20033;-89
2024/01/11 01:34:19;;;;;;;5.68;2.17;;;;;;;0.77;100.00;102190.94;6121174;23;20002;-90
2024/01/11 01:36:44;;;;;;;8.63;2.13;;;;;;;0.79;100.00;102191.81;6119590;23;20013;-90
2024/01/11 01:39:09;;;;;;;8.10;1.80;;;;;;;0.95;100.00;102181.81;6120794;23;20333;-88
2024/01/11 01:41:35;;;;;;;13.70;2.05;;;;;;;0.90;100.00;102186.00;6120706;23;20040;-91
2024/01/11 01:44:00;;;;;;;13.68;2.25;;;;;;;0.89;100.00;102191.94;6119345;23;20451;-91
2024/01/11 01:46:27;;;;;;;8.45;1.80;;;;;;;0.80;100.00;102197.75;6121126;23;20002;-89
2024/01/11 01:48:54;;;;;;;8.25;1.55;;;;;;;0.77;100.00;102201.13;6119723;23;20002;-91
2024/01/11 01:51:20;;;;;;;7.57;1.90;;;;;;;0.79;100.00;102204.53;6120699;23;20006;-90
2024/01/11 01:53:45;;;;;;;9.95;2.20;;;;;;;0.78;100.00;102200.28;6120858;23;20380;-89
2024/01/11 01:56:12;;;;;;;15.35;2.20;;;;;;;0.84;100.00;102204.59;6119218;23;20037;-90
2024/01/11 01:58:38;;;;;;;10.07;2.50;;;;;;;0.77;100.00;102205.34;6121089;23;20002;-91
2024/01/11 02:01:03;;;;;;;2.40;1.92;;;;;;;0.76;100.00;102219.75;6119037;23;20071;-90
2024/01/11 02:03:29;;;;;;;10.15;2.05;;;;;;;0.76;100.00;102224.84;6119455;23;20085;-89
2024/01/11 02:05:56;;;;;;;7.88;1.90;;;;;;;0.69;100.00;102210.34;6120846;23;20002;-90
2024/01/11 02:08:25;;;;;;;12.13;2.72;;;;;;;0.74;100.00;102225.66;6121189;23;20009;-89
2024/01/11 02:10:51;;;;;;;8.00;2.10;;;;;;;0.68;100.00;102221.31;6117125;23;19998;-90
2024/01/11 02:13:16;;;;;;;7.88;1.90;;;;;;;0.73;100.00;102240.06;6120973;23;20498;-90
2024/01/11 02:15:42;;;;;;;4.90;1.85;;;;;;;0.77;100.00;102236.69;6120917;23;20002;-90
2024/01/11 02:18:07;;;;;;;9.85;2.83;;;;;;;0.80;100.00;102236.72;6119266;23;20089;-90
2024/01/11 02:20:33;;;;;;;11.48;2.85;;;;;;;0.79;100.00;102234.19;6120903;23;20002;-89
2024/01/11 02:23:03;;;;;;;7.18;2.45;;;;;;;0.81;100.00;102238.44;6119174;23;19998;-89
2024/01/11 02:25:29;;;;;;;5.25;1.45;;;;;;;0.80;100.00;102251.97;6120970;23;20002;-90
2024/01/11 02:27:54;;;;;;;5.13;2.35;;;;;;;0.87;100.00;102252.91;6121018;23;20002;-91
2024/01/11 02:30:19;;;;;;;9.02;2.58;;;;;;;0.80;100.00;102251.13;6120780;23;20013;-91
2024/01/11 02:32:49;;;;;;;13.30;2.60;;;;;;;0.89;100.00;102246.16;6118785;23;20006;-90
2024/01/11 02:35:18;;;;;;;14.20;2.50;;;;;;;0.76;100.00;102244.31;6120864;23;20008;-91
2024/01/11 02:37:45;;;;;;;8.20;2.40;;;;;;;0.76;100.00;102262.97;6120823;23;20336;-91
2024/01/11 02:40:12;;;;;;;7.65;2.17;;;;;;;0.74;100.00;102239.19;6120858;23;20010;-90
2024/01/11 02:42:38;;;;;;;8.30;2.58;;;;;;;0.73;100.00;102255.31;6120357;23;20010;-90
2024/01/11 02:45:04;;;;;;;9.90;2.63;;;;;;;0.77;100.00;102267.19;6120754;23;20017;-90
2024/01/11 02:47:29;;;;;;;11.82;2.38;;;;;;;0.85;100.00;102259.66;6119721;23;20052;-90
2024/01/11 02:49:55;;;;;;;11.82;2.53;;;;;;;0.75;100.00;102258.69;6120304;23;20006;-90
2024/01/11 02:52:22;;;;;;;4.78;2.25;;;;;;;0.75;100.00;102263.78;6120503;23;20084;-90
2024/01/11 02:54:48;;;;;;;11.43;2.80;;;;;;;0.83;100.00;102276.59;6120538;23;20083;-89
2024/01/11 02:57:13;;;;;;;11.77;2.28;;;;;;;0.74;100.00;102274.78;6121410;23;20006;-90
2024/01/11 02:59:40;;;;;;;10.48;3.30;;;;;;;0.82;100.00;102285.03;6120627;23;20006;-90
2024/01/11 03:02:05;;;;;;;14.77;3.60;;;;;;;0.79;100.00;102285.88;6118876;23;20056;-90
2024/01/11 03:04:30;;;;;;;12.40;3.13;;;;;;;0.77;100.00;102282.44;6119102;23;20002;-89
2024/01/11 03:06:56;;;;;;;8.80;2.85;;;;;;;0.71;100.00;102286.59;6120703;23;20426;-89
2024/01/11 03:09:21;;;;;;;8.48;2.45;;;;;;;0.76;100.00;102293.47;6119263;23;20010;-90
2024/01/11 03:11:47;;;;;;;7.65;2.83;;;;;;;0.76;100.00;102298.53;6118299;23;20033;-90
2024/01/11 03:14:12;;;;;;;10.57;3.10;;;;;;;0.75;100.00;102306.97;6120726;23;20002;-90
2024/01/11 03:16:39;;;;;;;12.45;3.00;;;;;;;0.76;100.00;102307.84;6120645;23;20010;-89
2024/01/11 03:19:05;;;;;;;18.58;3.13;;;;;;;0.84;100.00;102311.34;6118849;23;20345;-90
2024/01/11 03:21:30;;;;;;;10.73;2.67;;;;;;;0.87;100.00;102319.00;6118850;23;20010;-90
2024/01/11 03:23:55;;;;;;;21.55;2.92;;;;;;;0.89;100.00;102311.41;6120962;23;19998;-90
2024/01/11 03:26:21;;;;;;;5.35;2.60;;;;;;;0.91;100.00;102314.81;6120538;23;20437;-89
2024/01/11 03:28:46;;;;;;;7.78;3.00;;;;;;;0.91;100.00;102312.28;6120724;23;20010;-90
2024/01/11 03:31:12;;;;;;;9.15;2.75;;;;;;;0.81;100.00;102312.16;6120172;23;20474;-89
2024/01/11 03:33:37;;;;;;;6.03;2.45;;;;;;;0.92;100.00;102311.44;6120579;23;20408;-90
2024/01/11 03:36:10;;;;;;;6.05;2.60;;;;;;;0.83;100.00;102317.28;6120496;23;20317;-89
2024/01/11 03:38:35;;;;;;;10.13;3.05;;;;;;;0.75;100.00;102319.69;6118962;23;20002;-90
2024/01/11 03:41:01;;;;;;;6.60;2.53;;;;;;;0.78;100.00;102318.88;6120152;23;20063;-89
2024/01/11 03:43:26;;;;;;;12.32;2.95;;;;;;;0.80;100.00;102323.13;6119051;23;20098;-91
2024/01/11 03:45:52;;;;;;;7.75;3.13;;;;;;;0.87;100.00;102323.25;6118923;23;20057;-90
2024/01/11 03:48:17;;;;;;;10.13;2.80;;;;;;;0.81;100.00;102319.78;6120593;23;20005;-90
2024/01/11 03:50:42;;;;;;;6.45;2.85;;;;;;;0.78;100.00;102324.84;6119148;23;19990;-91
2024/01/11 03:53:08;;;;;;;7.50;2.38;;;;;;;0.82;100.00;102326.56;6120083;23;20010;-90
2024/01/11 03:55:33;;;;;;;8.63;2.50;;;;;;;0.87;100.00;102338.50;6119885;23;20013;-90
2024/01/11 03:57:59;;;;;;;12.40;5.25;;;;;;;0.80;100.00;102330.75;6118941;23;20002;-90
2024/01/11 04:00:24;;;;;;;11.95;3.28;;;;;;;0.79;100.00;102336.69;6120384;23;20009;-90
2024/01/11 04:02:49;;;;;;;15.00;3.08;;;;;;;0.90;100.00;102343.59;6120872;23;20366;-90
2024/01/11 04:05:18;;;;;;;6.50;2.28;;;;;;;0.88;100.00;102343.59;6121749;23;20012;-90
2024/01/11 04:07:43;;;;;;;19.17;4.47;;;;;;;0.77;100.00;102337.50;6121360;23;20013;-90
2024/01/11 04:10:11;;;;;;;6.05;2.50;;;;;;;0.78;100.00;102335.00;6121625;23;20006;-90
2024/01/11 04:12:37;;;;;;;19.98;5.13;;;;;;;0.74;100.00;102338.31;6121198;23;20391;-90
2024/01/11 04:15:03;;;;;;;7.32;2.92;;;;;;;0.73;100.00;102336.63;6119775;23;20038;-90
2024/01/11 04:17:29;;;;;;;8.27;3.20;;;;;;;0.73;100.00;102341.72;6121707;23;19998;-90
2024/01/11 04:19:54;;;;;;;12.32;3.10;;;;;;;0.75;100.00;102347.66;6119476;23;20059;-90
2024/01/11 04:22:21;;;;;;;6.43;3.00;;;;;;;0.80;100.00;102342.63;6121775;23;20029;-90
2024/01/11 04:24:46;;;;;;;11.32;3.13;;;;;;;0.73;100.00;102346.78;6121737;23;20059;-90
2024/01/11 04:27:12;;;;;;;7.57;2.65;;;;;;;0.76;100.00;102346.81;6121629;23;20012;-90
2024/01/11 04:29:37;;;;;;;8.23;2.45;;;;;;;0.75;100.00;102362.91;6121484;23;20029;-91
2024/01/11 04:32:03;;;;;;;12.18;2.30;;;;;;;0.71;100.00;102357.75;6120896;23;20578;-89
2024/01/11 04:34:28;;;;;;;11.05;2.90;;;;;;;0.70;100.00;102356.91;6121633;23;20002;-91
2024/01/11 04:36:54;;;;;;;11.15;3.53;;;;;;;0.70;100.00;102364.53;6120007;23;20040;-90
2024/01/11 04:39:19;;;;;;;13.77;2.95;;;;;;;0.66;100.00;102360.25;6119844;23;20006;-89
2024/01/11 04:41:45;;;;;;;11.68;3.47;;;;;;;0.77;100.00;102358.69;6121287;23;20034;-90
2024/01/11 04:44:10;;;;;;;13.60;4.68;;;;;;;0.70;100.00;102356.91;6119819;23;20002;-89
2024/01/11 04:46:35;;;;;;;5.82;2.58;;;;;;;0.74;100.00;102362.88;6121517;23;20030;-91
2024/01/11 04:49:01;;;;;;;8.10;2.42;;;;;;;0.77;100.00;102363.78;6121677;23;20009;-89
2024/01/11 04:51:26;;;;;;;6.90;3.28;;;;;;;0.83;100.00;102366.41;6119545;23;20340;-89
2024/01/11 04:53:52;;;;;;;8.68;2.70;;;;;;;0.88;100.00;102371.56;6119901;23;20009;-90
2024/01/11 04:56:17;;;;;;;9.32;2.53;;;;;;;0.92;100.00;102367.38;6121363;23;20120;-89
2024/01/11 04:58:44;;;;;;;12.68;3.80;;;;;;;0.97;100.00;102365.75;6121578;23;20002;-91
2024/01/11 05:01:17;;;;;;;9.73;2.75;;;;;;;1.00;100.00;102360.69;6119937;23;20491;-92
2024/01/11 05:03:43;;;;;;;11.45;3.40;;;;;;;1.08;100.00;102369.28;6121031;23;20425;-92
2024/01/11 05:06:08;;;;;;;6.80;2.70;;;;;;;1.10;100.00;102367.63;6119488;23;20033;-91
2024/01/11 05:08:33;;;;;;;8.88;2.47;;;;;;;1.07;100.00;102367.56;6121648;23;20006;-93
2024/01/11 05:10:59;;;;;;;12.60;4.75;;;;;;;0.99;100.00;102377.63;6119969;23;20009;-93
2024/01/11 05:13:24;;;;;;;10.10;3.00;;;;;;;1.13;100.00;102372.75;6119392;23;20006;-92
2024/01/11 05:15:49;;;;;;;10.13;2.72;;;;;;;1.14;100.00;102376.97;6120563;23;20325;-91
2024/01/11 05:18:15;;;;;;;11.85;2.88;;;;;;;1.15;100.00;102383.78;6121735;23;20076;-91
2024/01/11 05:20:40;;;;;;;16.23;3.65;;;;;;;1.17;100.00;102381.25;6121032;23;20337;-92
2024/01/11 05:23:06;;;;;;;11.23;3.75;;;;;;;1.15;100.00;102393.13;6120401;23;20006;-92
2024/01/11 05:25:34;;;;;;;8.32;2.63;;;;;;;1.21;100.00;102388.94;6120258;23;20055;-92
2024/01/11 05:28:00;;;;;;;11.02;3.30;;;;;;;1.23;100.00;102394.06;6120344;23;20105;-90
2024/01/11 05:30:26;;;;;;;14.93;3.35;;;;;;;1.28;100.00;102393.28;6119585;23;20448;-89
2024/01/11 05:32:51;;;;;;;14.48;2.80;;;;;;;1.24;100.00;102391.53;6121204;23;20085;-91
2024/01/11 05:35:17;;;;;;;5.68;2.38;;;;;;;1.32;100.00;102398.38;6121301;23;20507;-91
2024/01/11 05:37:42;;;;;;;10.73;2.60;;;;;;;1.27;100.00;102406.00;6119730;23;20310;-90
2024/01/11 05:40:08;;;;;;;18.95;5.43;;;;;;;1.32;100.00;102403.47;6120632;23;20033;-91
2024/01/11 05:42:33;;;;;;;8.25;3.40;;;;;;;1.34;100.00;102406.91;6121513;23;20002;-91
2024/01/11 05:44:59;;;;;;;14.20;3.58;;;;;;;1.34;100.00;102407.78;6119336;23;20031;-91
2024/01/11 05:47:24;;;;;;;13.88;2.55;;;;;;;1.31;100.00;102406.88;6121148;23;20005;-90
2024/01/11 05:49:50;;;;;;;7.43;2.38;;;;;;;1.44;100.00;102412.13;6120841;23;20084;-89
2024/01/11 05:52:15;;;;;;;5.47;2.20;;;;;;;1.35;100.00;102406.06;6119699;23;20006;-90
2024/01/11 05:54:41;;;;;;;11.10;4.03;;;;;;;1.40;100.00;102407.84;6119454;23;20337;-91
2024/01/11 05:57:07;;;;;;;12.70;3.30;;;;;;;1.43;100.00;102407.88;6119440;23;20009;-91
2024/01/11 05:59:32;;;;;;;10.25;2.47;;;;;;;1.49;100.00;102410.50;6121154;23;20006;-91
2024/01/11 06:02:00;;;;;;;11.02;3.13;;;;;;;1.33;100.00;102410.28;6120751;23;20013;-90
2024/01/11 06:04:26;;;;;;;7.82;4.03;;;;;;;1.37;100.00;102406.97;6121464;23;20005;-91
2024/01/11 06:06:51;;;;;;;11.02;2.60;;;;;;;1.27;100.00;102401.75;6119350;23;20009;-90
2024/01/11 06:09:17;;;;;;;5.70;2.40;;;;;;;1.31;100.00;102417.03;6121143;23;20006;-90
2024/01/11 06:11:42;;;;;;;5.80;2.70;;;;;;;1.41;100.00;102414.63;6118976;23;20417;-91
2024/01/11 06:14:08;;;;;;;8.27;2.33;;;;;;;1.47;100.00;102418.94;6121142;23;20006;-91
2024/01/11 06:16:33;;;;;;;14.65;2.97;;;;;;;1.28;100.00;102418.72;6119704;23;20010;-91
2024/01/11 06:18:59;;;;;;;4.25;2.13;;;;;;;1.37;100.00;102415.44;6120716;23;20002;-90
2024/01/11 06:21:24;;;;;;;11.57;2.70;;;;;;;1.39;100.00;102420.53;6118957;23;20010;-91
2024/01/11 06:23:49;;;;;;;7.30;2.40;;;;;;;1.47;100.00;102418.94;6121195;23;19998;-91
2024/01/11 06:26:15;;;;;;;7.18;1.98;;;;;;;1.47;100.00;102424.03;6119225;23;20425;-91
2024/01/11 06:28:40;;;;;;;8.13;1.98;;;;;;;1.48;100.00;102423.19;6120980;23;20030;-90
2024/01/11 06:31:06;;;;;;;10.00;2.55;;;;;;;1.51;100.00;102425.75;6119321;23;20032;-89
2024/01/11 06:33:32;;;;;;;8.50;2.72;;;;;;;1.48;100.00;102430.81;6118871;23;20433;-90
2024/01/11 06:35:58;;;;;;;4.95;2.03;;;;;;;1.43;100.00;102429.91;6121074;23;20341;-90
2024/01/11 06:38:23;;;;;;;16.63;2.78;;;;;;;1.47;100.00;102439.31;6119631;23;19994;-90
2024/01/11 06:40:49;;;;;;;4.78;1.88;;;;;;;1.39;100.00;102440.88;6120336;23;20002;-91
2024/01/11 06:43:15;;;;;;;7.45;2.33;;;;;;;1.34;100.00;102442.50;6119305;23;20009;-90
2024/01/11 06:45:42;;;;;;;10.18;2.03;;;;;;;1.33;100.00;102451.00;6120917;23;20012;-90
2024/01/11 06:48:08;;;;;;;10.73;3.55;;;;;;;1.30;100.00;102450.97;6119490;23;20130;-90
2024/01/11 06:50:33;;;;;;;10.55;2.50;;;;;;;1.43;100.00;102457.91;6120019;23;20414;-90
2024/01/11 06:52:59;;;;;;;13.50;2.65;;;;;;;1.42;100.00;102457.06;6118850;23;20344;-90
2024/01/11 06:55:25;;;;;;;8.68;2.50;;;;;;;1.42;100.00;102469.78;6120719;23;20444;-91
2024/01/11 06:57:50;;;;;;;8.82;3.92;;;;;;;1.41;100.00;102477.38;6120756;23;20002;-91
2024/01/11 07:00:15;;;;;;;6.53;2.35;;;;;;;1.39;100.00;102473.94;6120741;23;20012;-91
2024/01/11 07:02:41;;;;;;;11.20;2.40;;;;;;;1.49;100.00;102478.34;6118417;23;20467;-91
2024/01/11 07:05:07;;;;;;;10.73;2.67;;;;;;;1.47;100.00;102482.56;6118723;23;20044;-89
2024/01/11 07:07:33;;;;;;;4.43;1.90;;;;;;;1.59;100.00;102479.31;6118042;23;20010;-91
2024/01/11 07:09:59;;;;;;;9.90;2.03;;;;;;;1.55;100.00;102482.66;6119302;23;20105;-91
2024/01/11 07:12:25;;;;;;;7.03;2.00;;;;;;;1.44;100.00;102491.00;6118762;23;20002;-91
2024/01/11 07:14:51;;;;;;;11.18;2.25;;;;;;;1.43;100.00;102493.53;6119207;23;20045;-94
2024/01/11 07:17:16;;;;;;;11.07;1.90;;;;;;;1.48;100.00;102491.91;6119121;23;20010;-91
2024/01/11 07:19:42;;;;;;;3.15;1.58;;;;;;;1.50;100.00;102495.31;6120640;23;20006;-91
2024/01/11 07:22:07;;;;;;;13.38;2.30;;;;;;;1.52;100.00;102505.53;6118074;23;20085;-92
2024/01/11 07:24:37;;;;;;;12.02;1.92;;;;;;;1.44;100.00;102501.19;6116332;23;20010;-91
2024/01/11 07:27:05;;;;;;;4.28;1.70;;;;;;;1.55;100.00;102516.59;6117128;22;20075;-92
2024/01/11 07:29:30;;;;;;;9.48;2.25;;;;;;;1.44;100.00;102510.50;6120263;23;20450;-94
2024/01/11 07:31:56;;;;;;;12.98;2.28;;;;;;;1.46;100.00;102508.81;6119165;23;20029;-89
2024/01/11 07:34:21;;;;;;;7.53;2.15;;;;;;;1.47;100.00;102513.94;6117492;23;20005;-94
2024/01/11 07:36:46;;;;;;;12.55;2.40;;;;;;;1.53;100.00;102523.34;6118949;23;20013;-91
2024/01/11 07:39:12;;;;;;;8.25;2.03;;;;;;;1.41;100.00;102513.84;6119162;23;20416;-93
2024/01/11 07:41:37;;;;;;;4.30;2.10;;;;;;;1.45;100.00;102530.88;6117554;23;20006;-92
2024/01/11 07:44:03;;;;;;;10.95;2.47;;;;;;;1.50;100.00;102538.59;6119786;23;20006;-96
2024/01/11 07:46:28;;;;;;;5.53;2.05;;;;;;;1.49;100.00;102526.72;6119077;22;20089;-92
2024/01/11 07:48:54;;;;;;;11.93;2.15;;;;;;;1.59;100.00;102545.50;6119500;23;20524;-92
2024/01/11 07:51:20;;;;;;;4.78;2.83;;;;;;;1.54;100.00;102536.91;6118364;23;20009;-91
2024/01/11 07:53:46;;;;;;;11.75;2.40;;;;;;;1.51;100.00;102547.91;6120969;23;20002;-92
2024/01/11 07:56:11;;;;;;;8.90;1.73;;;;;;;1.46;100.00;102544.44;6121316;23;20081;-91
2024/01/11 07:58:37;;;;;;;9.70;2.30;;;;;;;1.50;100.00;102536.03;6121281;23;20009;-94
2024/01/11 08:01:03;;;;;;;8.25;1.98;;;;;;;1.50;100.00;102546.22;6119679;23;20016;-93
2024/01/11 08:03:29;;;;;;;12.57;2.30;;;;;;;1.49;100.00;102540.28;6121005;23;20006;-94
2024/01/11 08:05:55;;;;;;;12.65;2.17;;;;;;;1.58;100.00;102552.25;6117816;23;20006;-94
2024/01/11 08:08:22;;;;;;;8.52;2.30;;;;;;;1.55;100.00;102554.78;6119700;23;20006;-91
2024/01/11 08:10:49;;;;;;;10.70;2.22;;;;;;;1.47;100.00;102546.19;6118962;23;20029;-93
2024/01/11 08:13:15;;;;;;;7.13;2.05;;;;;;;1.51;100.00;102553.00;6118928;23;20328;-94
2024/01/11 08:15:41;;;;;;;11.02;2.45;;;;;;;1.53;100.00;102558.97;6114038;23;20006;-91
2024/01/11 08:18:07;;;;;;;8.27;1.65;;;;;;;1.51;100.00;102568.28;6118520;23;20032;-91
2024/01/11 08:20:33;;;;;;;4.93;1.45;;;;;;;1.43;100.00;102564.78;6117250;23;20010;-91
2024/01/11 08:22:58;;;;;;;6.75;1.95;;;;;;;1.43;100.00;102564.78;6120088;23;20009;-92
2024/01/11 08:25:23;;;;;;;4.28;1.45;;;;;;;1.53;100.00;102566.59;6119396;23;20048;-92
2024/01/11 08:27:49;;;;;;;7.72;1.90;;;;;;;1.46;100.00;102564.81;6117946;23;20508;-91
2024/01/11 08:30:15;;;;;;;5.13;1.98;;;;;;;1.42;100.00;102568.16;6119790;23;20060;-92
2024/01/11 08:32:41;;;;;;;6.68;1.75;;;;;;;1.45;100.00;102573.28;6117821;23;20009;-91
2024/01/11 08:35:09;;;;;;;9.00;1.50;;;;;;;1.44;100.00;102571.56;6116607;23;20664;-91
2024/01/11 08:37:35;;;;;;;11.25;1.65;;;;;;;1.33;100.00;102576.50;6117143;23;20332;-93
2024/01/11 08:40:01;;;;;;;3.83;1.30;;;;;;;1.37;100.00;102574.88;6119083;23;20018;-92
2024/01/11 08:42:26;;;;;;;9.40;2.20;;;;;;;1.32;100.00;102582.44;6120352;23;20002;-90
2024/01/11 08:44:52;;;;;;;7.88;1.38;;;;;;;1.36;100.00;102578.22;6118755;23;20068;-93
2024/01/11 08:47:18;;;;;;;19.25;3.63;;;;;;;1.41;100.00;102571.53;6118040;23;20006;-91
2024/01/11 08:49:43;;;;;;;8.18;1.92;;;;;;;1.36;100.00;102568.06;6117374;23;20002;-91
2024/01/11 08:52:09;;;;;;;6.63;1.35;;;;;;;1.40;100.00;102574.91;6118086;23;20467;-92
2024/01/11 08:54:34;;;;;;;7.88;1.65;;;;;;;1.39;100.00;102591.00;6119630;23;20004;-89
2024/01/11 08:57:01;;;;;;;4.13;1.50;;;;;;;1.40;100.00;102585.09;6116431;23;20306;-93
2024/01/11 08:59:26;;;;;;;10.05;2.00;;;;;;;1.42;100.00;102593.59;6119199;23;20010;-90
2024/01/11 09:01:52;;;;;;;4.85;1.65;;;;;;;1.41;100.00;102602.06;6117806;23;20017;-91
2024/01/11 09:04:18;;;;;;;7.45;1.50;;;;;;;1.45;100.00;102599.59;6119535;23;20002;-92
2024/01/11 09:06:43;;;;;;;5.78;1.90;;;;;;;1.44;100.00;102591.91;6117553;23;20010;-91
2024/01/11 09:09:10;;;;;;;10.02;1.60;;;;;;;1.50;100.00;102600.50;6119127;23;20029;-91
2024/01/11 09:11:35;;;;;;;7.28;2.05;;;;;;;1.49;100.00;102606.44;6119100;23;20448;-91
2024/01/11 09:14:02;;;;;;;3.42;1.20;;;;;;;1.55;100.00;102605.66;6118933;23;19998;-92
2024/01/11 09:16:27;;;;;;;5.78;1.60;;;;;;;1.68;100.00;102612.66;6118324;23;20006;-90
2024/01/11 09:18:53;;;;;;;7.45;1.83;;;;;;;1.63;100.00;102614.25;6118772;23;20013;-91
2024/01/11 09:21:18;;;;;;;7.65;1.40;;;;;;;1.68;100.00;102627.94;6116783;23;20424;-89
2024/01/11 09:23:44;;;;;;;9.45;3.15;;;;;;;1.70;100.00;102630.50;6118069;23;20006;-89
2024/01/11 09:26:10;;;;;;;5.55;1.02;;;;;;;1.73;100.00;102629.66;6117853;23;20008;-92
2024/01/11 09:28:35;;;;;;;4.50;1.40;;;;;;;1.60;100.00;102639.69;6116889;23;20425;-92
2024/01/11 09:31:01;;;;;;;4.85;1.58;;;;;;;1.61;100.00;102643.94;6118822;23;19998;-92
2024/01/11 09:33:27;;;;;;;8.80;1.48;;;;;;;1.77;100.00;102641.63;6116413;23;20009;-91
2024/01/11 09:35:54;;;;;;;6.25;1.40;;;;;;;1.74;100.00;102642.44;6118356;23;20456;-90
2024/01/11 09:38:20;;;;;;;5.60;1.80;;;;;;;1.83;100.00;102639.16;6118448;23;20068;-89
2024/01/11 09:40:46;;;;;;;10.73;1.30;;;;;;;1.81;100.00;102649.34;6117486;23;20432;-91
2024/01/11 09:43:12;;;;;;;5.88;1.42;;;;;;;1.89;100.00;102644.34;6118355;23;19998;-88
2024/01/11 09:45:37;;;;;;;7.20;1.58;;;;;;;1.98;100.00;102636.84;6118200;23;20002;-89
2024/01/11 09:48:06;;;;;;;4.80;1.38;;;;;;;1.97;100.00;102649.53;6118367;23;20329;-90
2024/01/11 09:50:32;;;;;;;4.80;1.20;;;;;;;2.02;100.00;102658.09;6117465;23;20010;-91
2024/01/11 09:52:58;;;;;;;3.65;1.10;;;;;;;2.06;100.00;102665.81;6117610;23;20017;-91
2024/01/11 09:55:23;;;;;;;6.00;1.35;;;;;;;2.10;100.00;102657.38;6116905;23;20325;-91
2024/01/11 09:57:54;;;;;;;5.57;3.67;;;;;;;2.11;100.00;102664.16;6117966;23;20006;-91
2024/01/11 10:00:22;;;;;;;13.30;1.60;;;;;;;2.18;100.00;102669.38;6117876;23;20051;-91
2024/01/11 10:02:48;;;;;;;2.40;1.35;;;;;;;2.59;100.00;102669.03;6118275;23;19998;-90
2024/01/11 10:05:16;;;;;;;4.50;1.20;;;;;;;3.16;100.00;102668.75;6115354;23;20020;-88
2024/01/11 10:07:41;;;;;;;6.47;1.48;;;;;;;3.05;100.00;102672.03;6115357;23;20325;-91
2024/01/11 10:10:08;;;;;;;7.03;1.15;;;;;;;2.87;100.00;102677.81;6117708;23;20009;-88
2024/01/11 10:12:37;;;;;;;2.25;1.20;;;;;;;3.17;100.00;102672.16;6117140;23;20025;-91
2024/01/11 10:15:09;;;;;;;5.70;1.35;;;;;;;3.21;100.00;102673.91;6119308;23;20006;-90
2024/01/11 10:17:35;;;;;;;7.90;1.00;;;;;;;3.52;100.00;102680.13;6120324;23;20032;-88
2024/01/11 10:20:01;;;;;;;7.60;1.67;;;;;;;4.25;100.00;102677.19;6117675;23;20020;-89
2024/01/11 10:22:27;;;;;;;3.55;0.98;;;;;;;4.54;96.84;102666.22;6120576;23;20491;-91
2024/01/11 10:25:14;;;;;;;3.63;0.85;;;;;;;5.56;89.40;102669.78;6119339;23;20001;-91
2024/01/11 10:27:45;;;;;;;4.43;1.17;;;;;;;7.11;77.55;102679.47;6121063;23;20403;-90
2024/01/11 10:30:17;;;;;;;3.15;0.95;;;;;;;6.30;79.66;102685.03;6119797;23;20033;-90
2024/01/11 10:32:47;;;;;;;4.45;1.15;;;;;;;5.40;83.58;102676.63;6120084;23;20006;-91
2024/01/11 10:35:13;;;;;;;2.90;1.05;;;;;;;6.21;83.07;102694.47;6118786;23;20006;-90
2024/01/11 10:37:39;;;;;;;7.72;1.25;;;;;;;5.90;80.61;102685.97;6118444;23;20010;-90
2024/01/11 10:40:12;;;;;;;6.95;1.38;;;;;;;7.03;73.87;102676.97;6117974;23;20014;-91
2024/01/11 10:42:45;;;;;;;4.78;0.65;;;;;;;6.41;75.59;102691.84;6118519;23;20059;-90
2024/01/11 10:45:15;;;;;;;3.88;1.10;;;;;;;7.37;72.62;102687.00;6118112;23;20014;-90
2024/01/11 10:47:51;;;;;;;1.98;0.93;;;;;;;6.93;72.90;102690.72;6117860;23;20072;-90
2024/01/11 10:50:18;;;;;;;3.83;0.80;;;;;;;7.10;71.34;102698.31;6116774;23;20002;-90
2024/01/11 10:52:57;;;;;;;2.50;0.90;;;;;;;6.69;72.71;102696.00;6117989;23;20017;-92
2024/01/11 10:55:22;;;;;;;5.57;0.98;;;;;;;6.39;76.70;102701.25;6119490;23;20002;-91
2024/01/11 10:57:49;;;;;;;3.30;0.80;;;;;;;7.77;69.22;102690.94;6118914;23;20002;-90
2024/01/11 11:00:16;;;;;;;5.07;1.38;;;;;;;8.63;63.86;102695.13;6119674;23;20013;-93
2024/01/11 11:02:43;;;;;;;3.08;1.08;;;;;;;9.28;60.96;102701.06;6119844;23;19998;-91
2024/01/11 11:05:10;;;;;;;8.57;1.13;;;;;;;10.07;57.84;102697.97;6117020;23;20314;-89
2024/01/11 11:07:38;;;;;;;5.47;1.10;;;;;;;9.03;58.33;102713.47;6118266;23;20002;-90
2024/01/11 11:10:06;;;;;;;2.22;0.80;;;;;;;10.47;57.05;102692.06;6118031;23;20437;-89
2024/01/11 11:12:33;;;;;;;6.65;2.05;;;;;;;9.93;56.21;102705.16;6119586;23;20033;-87
2024/01/11 11:15:01;;;;;;;5.50;1.08;;;;;;;9.67;57.54;102709.03;6117640;23;20141;-87
2024/01/11 11:17:27;;;;;;;4.40;0.75;;;;;;;11.05;55.67;102714.03;6119801;23;20013;-91
2024/01/11 11:19:53;;;;;;;5.40;1.00;;;;;;;9.22;57.83;102701.19;6118339;23;20017;-92